Time;durP1;ratioP1;P1;durP2;ratioP2;P2;SDS_P1;SDS_P2;PMS_P1;PMS_P2;Temp;Humidity;BMP_temperature;BMP_pressure;BME280_temperature;BME280_humidity;BME280_pressure;Samples;Min_cycle;Max_cycle;Signal;HPM_P1;HPM_P2
2022/03/28 00:02:08;;;;;;;4.15;2.30;;;18.20;52.30;;;;;;5052156;28;20235;-66
2022/03/28 00:04:33;;;;;;;3.60;2.25;;;18.20;52.40;;;;;;5051781;28;20178;-67
2022/03/28 00:06:59;;;;;;;3.38;2.20;;;18.20;52.30;;;;;;5052370;28;20171;-67
2022/03/28 00:09:24;;;;;;;4.40;2.45;;;18.10;52.30;;;;;;5051952;28;20179;-67
2022/03/28 00:11:50;;;;;;;3.97;2.20;;;18.10;52.30;;;;;;5051431;28;20571;-70
2022/03/28 00:14:15;;;;;;;5.57;2.72;;;18.20;52.40;;;;;;5051927;28;20600;-70
2022/03/28 00:16:41;;;;;;;5.65;2.88;;;18.10;52.30;;;;;;5051523;28;20171;-67
2022/03/28 00:19:06;;;;;;;5.40;2.50;;;18.10;52.40;;;;;;5051449;28;20579;-68
2022/03/28 00:21:32;;;;;;;4.43;2.15;;;18.10;52.40;;;;;;5052025;28;20214;-68
2022/03/28 00:23:58;;;;;;;6.45;2.85;;;18.10;52.40;;;;;;5051267;28;20167;-68
2022/03/28 00:26:23;;;;;;;5.90;2.40;;;18.10;52.40;;;;;;5051636;28;20194;-70
2022/03/28 00:28:49;;;;;;;6.15;2.22;;;18.10;52.40;;;;;;5050433;28;20167;-68
2022/03/28 00:31:14;;;;;;;4.82;2.78;;;18.10;52.40;;;;;;5050295;28;20179;-68
2022/03/28 00:33:40;;;;;;;6.25;2.67;;;18.00;52.30;;;;;;5051838;28;20263;-67
2022/03/28 00:36:06;;;;;;;4.35;2.20;;;18.10;52.40;;;;;;5051435;28;20171;-66
2022/03/28 00:38:32;;;;;;;3.75;2.80;;;18.10;52.40;;;;;;5050948;28;20581;-69
2022/03/28 00:40:58;;;;;;;4.13;2.40;;;18.10;52.40;;;;;;5051513;28;20206;-69
2022/03/28 00:43:23;;;;;;;4.32;2.47;;;18.10;52.40;;;;;;5051372;28;20179;-70
2022/03/28 00:45:49;;;;;;;6.50;2.28;;;18.10;52.40;;;;;;5051094;28;20674;-70
2022/03/28 00:48:14;;;;;;;3.60;2.00;;;18.00;52.30;;;;;;5051595;28;20171;-70
2022/03/28 00:50:40;;;;;;;3.83;2.40;;;18.10;52.40;;;;;;5051588;28;20602;-70
2022/03/28 00:53:06;;;;;;;5.05;2.75;;;18.00;52.30;;;;;;5050757;28;20174;-69
2022/03/28 00:55:32;;;;;;;3.30;2.40;;;18.00;52.30;;;;;;5051330;28;20197;-69
2022/03/28 00:57:57;;;;;;;4.97;2.70;;;18.00;52.30;;;;;;5051259;28;20163;-69
2022/03/28 01:00:23;;;;;;;3.97;2.58;;;18.00;52.40;;;;;;5050184;28;20624;-69
2022/03/28 01:02:48;;;;;;;3.88;2.40;;;18.00;52.40;;;;;;5051347;28;20181;-68
2022/03/28 01:05:14;;;;;;;3.88;2.45;;;18.00;52.40;;;;;;5050916;28;20171;-69
2022/03/28 01:07:40;;;;;;;4.10;2.17;;;18.00;52.40;;;;;;5050763;28;20556;-69
2022/03/28 01:10:08;;;;;;;6.03;2.55;;;18.00;52.40;;;;;;5050758;28;20167;-70
2022/03/28 01:12:34;;;;;;;5.07;2.35;;;18.00;52.40;;;;;;5050124;28;20190;-72
2022/03/28 01:15:00;;;;;;;4.13;2.20;;;18.00;52.40;;;;;;5049504;28;20268;-70
2022/03/28 01:20:10;;;;;;;4.43;2.45;;;18.00;52.40;;;;;;5050076;28;20213;-69
2022/03/28 01:22:36;;;;;;;5.57;2.75;;;18.00;52.40;;;;;;5050937;28;20543;-71
2022/03/28 01:25:03;;;;;;;4.63;2.08;;;18.00;52.40;;;;;;5050909;28;20638;-71
2022/03/28 01:27:29;;;;;;;6.15;2.70;;;17.90;52.40;;;;;;5050214;28;20183;-70
2022/03/28 01:29:57;;;;;;;4.88;2.50;;;17.90;52.30;;;;;;5051013;28;20171;-69
2022/03/28 01:32:23;;;;;;;4.72;2.53;;;17.90;52.30;;;;;;5050741;28;20232;-70
2022/03/28 01:34:48;;;;;;;5.03;2.80;;;17.90;52.30;;;;;;5050110;28;20552;-68
2022/03/28 01:37:14;;;;;;;7.68;2.85;;;17.90;53.00;;;;;;5050404;28;20179;-68
2022/03/28 01:39:40;;;;;;;4.97;2.20;;;17.90;52.40;;;;;;5051170;28;20175;-69
2022/03/28 01:42:05;;;;;;;4.47;2.30;;;17.90;52.40;;;;;;5050901;28;20211;-70
2022/03/28 01:44:31;;;;;;;4.72;2.55;;;17.90;52.40;;;;;;5054817;28;20171;-71
2022/03/28 01:46:56;;;;;;;4.00;2.13;;;17.90;52.40;;;;;;5054692;28;20537;-69
2022/03/28 01:49:22;;;;;;;4.45;2.40;;;17.90;52.40;;;;;;5053515;28;20533;-69
2022/03/28 01:51:48;;;;;;;5.25;2.63;;;17.80;52.40;;;;;;5054469;28;20185;-69
2022/03/28 01:54:14;;;;;;;4.85;2.15;;;17.90;52.40;;;;;;5054046;28;20549;-70
2022/03/28 01:56:40;;;;;;;2.88;1.67;;;17.90;52.50;;;;;;5053711;28;20191;-69
2022/03/28 01:59:06;;;;;;;5.15;2.58;;;17.90;52.40;;;;;;5052861;28;20572;-68
2022/03/28 02:01:31;;;;;;;4.68;2.10;;;17.90;52.40;;;;;;5054274;28;20682;-69
2022/03/28 02:03:57;;;;;;;5.43;2.33;;;17.90;52.40;;;;;;5053282;28;20226;-68
2022/03/28 02:06:23;;;;;;;8.55;2.25;;;17.80;52.40;;;;;;5054015;28;20528;-69
2022/03/28 02:08:48;;;;;;;3.42;2.25;;;17.80;52.40;;;;;;5053944;28;20167;-70
2022/03/28 02:11:14;;;;;;;4.38;2.70;;;17.80;52.40;;;;;;5053155;28;20186;-70
2022/03/28 02:13:39;;;;;;;5.47;2.70;;;17.80;52.40;;;;;;5054358;28;20179;-71
2022/03/28 02:16:05;;;;;;;5.85;2.47;;;17.80;52.40;;;;;;5053768;28;20646;-70
2022/03/28 02:18:31;;;;;;;3.20;2.28;;;17.80;52.40;;;;;;5053124;28;20642;-73
2022/03/28 02:20:56;;;;;;;4.25;2.10;;;17.80;52.40;;;;;;5053675;28;20252;-69
2022/03/28 02:23:22;;;;;;;3.58;2.10;;;17.80;52.40;;;;;;5053652;28;20171;-70
2022/03/28 02:25:48;;;;;;;4.13;2.30;;;17.80;52.40;;;;;;5055134;28;20175;-71
2022/03/28 02:28:13;;;;;;;5.95;2.60;;;17.80;52.40;;;;;;5054506;28;20171;-69
2022/03/28 02:30:39;;;;;;;5.25;2.60;;;17.80;52.40;;;;;;5054221;28;20182;-70
2022/03/28 02:33:07;;;;;;;4.65;2.83;;;17.80;52.40;;;;;;5054761;28;20175;-68
2022/03/28 02:35:33;;;;;;;5.97;2.80;;;17.90;52.50;;;;;;5054752;28;20206;-69
2022/03/28 02:38:01;;;;;;;4.80;2.20;;;17.80;52.40;;;;;;5054017;28;20229;-69
2022/03/28 02:40:28;;;;;;;3.42;2.13;;;17.70;52.40;;;;;;5054459;28;20211;-69
2022/03/28 02:42:55;;;;;;;5.28;2.65;;;17.80;52.40;;;;;;5054734;28;20183;-70
2022/03/28 02:45:20;;;;;;;4.60;2.47;;;17.70;52.40;;;;;;5053487;28;20648;-69
2022/03/28 02:47:46;;;;;;;4.15;2.45;;;17.70;52.40;;;;;;5054489;28;20270;-70
2022/03/28 02:50:11;;;;;;;3.55;2.17;;;17.70;52.40;;;;;;5054170;28;20233;-70
2022/03/28 02:52:37;;;;;;;6.28;2.15;;;17.70;52.40;;;;;;5053868;28;20179;-70
2022/03/28 02:55:03;;;;;;;3.92;2.05;;;17.70;52.40;;;;;;5054371;28;20240;-69
2022/03/28 02:57:28;;;;;;;3.97;2.15;;;17.70;52.40;;;;;;5054282;28;20657;-69
2022/03/28 02:59:54;;;;;;;4.75;2.20;;;17.70;52.40;;;;;;5053521;28;20211;-69
2022/03/28 03:02:19;;;;;;;4.95;2.22;;;17.70;52.40;;;;;;5053900;28;20211;-69
2022/03/28 03:04:45;;;;;;;3.58;2.20;;;17.70;52.40;;;;;;5054179;28;20696;-69
2022/03/28 03:07:10;;;;;;;4.07;2.40;;;17.70;52.40;;;;;;5053099;28;20217;-68
2022/03/28 03:09:39;;;;;;;4.25;2.70;;;17.70;52.50;;;;;;5054067;28;20262;-70
2022/03/28 03:12:05;;;;;;;4.40;2.17;;;17.60;52.40;;;;;;5054175;28;20183;-71
2022/03/28 03:14:30;;;;;;;4.55;2.42;;;17.70;52.40;;;;;;5053068;28;20194;-70
2022/03/28 03:16:56;;;;;;;4.05;2.15;;;17.60;52.40;;;;;;5053999;28;20258;-68
2022/03/28 03:19:21;;;;;;;4.90;2.20;;;17.70;52.50;;;;;;5053545;28;20258;-69
2022/03/28 03:21:47;;;;;;;2.78;1.95;;;17.60;52.40;;;;;;5053291;28;20217;-68
2022/03/28 03:24:13;;;;;;;2.40;1.67;;;17.60;52.40;;;;;;5053583;28;20228;-70
2022/03/28 03:26:38;;;;;;;5.07;2.40;;;17.60;52.40;;;;;;5053035;28;20174;-68
2022/03/28 03:29:04;;;;;;;3.17;1.80;;;17.60;52.40;;;;;;5053839;28;20179;-69
2022/03/28 03:31:29;;;;;;;5.90;2.60;;;17.60;52.50;;;;;;5053447;28;20171;-67
2022/03/28 03:33:55;;;;;;;4.03;2.03;;;17.60;52.50;;;;;;5052859;28;20194;-69
2022/03/28 03:36:20;;;;;;;5.35;2.55;;;17.60;52.40;;;;;;5053135;28;20591;-69
2022/03/28 03:38:46;;;;;;;5.18;2.72;;;17.60;52.40;;;;;;5053751;28;20178;-69
2022/03/28 03:41:11;;;;;;;3.60;2.20;;;17.60;52.40;;;;;;5052594;28;20229;-66
2022/03/28 03:43:37;;;;;;;4.07;1.92;;;17.60;52.40;;;;;;5053794;28;20174;-67
2022/03/28 03:46:05;;;;;;;4.78;2.45;;;17.60;52.40;;;;;;5053538;28;20198;-69
2022/03/28 03:48:31;;;;;;;4.70;2.40;;;17.50;52.40;;;;;;5052507;28;20258;-71
2022/03/28 03:50:57;;;;;;;4.32;2.10;;;17.60;52.40;;;;;;5053265;28;20765;-69
2022/03/28 03:53:22;;;;;;;5.68;2.25;;;17.60;52.40;;;;;;5053095;28;20172;-69
2022/03/28 03:55:48;;;;;;;3.20;2.20;;;17.50;52.40;;;;;;5052651;28;20179;-69
2022/03/28 03:58:13;;;;;;;4.05;2.08;;;17.50;52.40;;;;;;5052970;28;20175;-68
2022/03/28 04:00:42;;;;;;;5.72;2.55;;;17.50;52.40;;;;;;5052939;28;20258;-69
2022/03/28 04:03:07;;;;;;;3.45;1.80;;;17.50;52.40;;;;;;5052041;28;20171;-68
2022/03/28 04:05:34;;;;;;;5.25;2.08;;;17.50;52.40;;;;;;5053051;28;20181;-69
2022/03/28 04:08:01;;;;;;;3.78;2.22;;;17.50;52.40;;;;;;5053162;28;20226;-68
2022/03/28 04:10:27;;;;;;;5.65;2.22;;;17.50;52.40;;;;;;5052184;28;20630;-71
2022/03/28 04:12:52;;;;;;;4.20;2.03;;;17.50;52.40;;;;;;5052980;28;20631;-71
2022/03/28 04:15:18;;;;;;;4.57;2.20;;;17.50;52.40;;;;;;5052763;28;20546;-71
2022/03/28 04:17:44;;;;;;;3.95;2.30;;;17.50;52.40;;;;;;5052185;28;20179;-70
2022/03/28 04:20:11;;;;;;;3.67;1.70;;;17.50;52.40;;;;;;5052719;28;20586;-70
2022/03/28 04:22:36;;;;;;;3.80;2.00;;;17.50;52.40;;;;;;5053021;28;20721;-71
2022/03/28 04:25:03;;;;;;;5.78;2.33;;;17.50;52.40;;;;;;5052119;28;20688;-69
2022/03/28 04:27:28;;;;;;;4.03;2.38;;;17.50;52.40;;;;;;5052421;28;20241;-69
2022/03/28 04:29:54;;;;;;;3.58;2.00;;;17.40;52.30;;;;;;5052117;28;20553;-69
2022/03/28 04:32:19;;;;;;;3.72;1.92;;;17.40;52.40;;;;;;5052320;28;20174;-68
2022/03/28 04:34:45;;;;;;;4.13;2.33;;;17.40;52.40;;;;;;5052812;28;20203;-67
2022/03/28 04:37:10;;;;;;;6.20;2.05;;;17.40;52.30;;;;;;5051793;28;20246;-68
2022/03/28 04:39:36;;;;;;;3.80;1.98;;;17.40;52.40;;;;;;5052599;28;20217;-68
2022/03/28 04:42:01;;;;;;;4.15;2.65;;;17.40;52.40;;;;;;5052559;28;20695;-69
2022/03/28 04:44:27;;;;;;;3.45;2.05;;;17.40;52.40;;;;;;5051709;28;20171;-70
2022/03/28 04:46:52;;;;;;;3.38;2.13;;;17.40;52.30;;;;;;5052433;28;20171;-69
2022/03/28 04:49:18;;;;;;;3.05;2.03;;;17.40;52.40;;;;;;5052355;28;20229;-69
2022/03/28 04:51:43;;;;;;;3.85;2.28;;;17.40;52.40;;;;;;5051896;28;20179;-68
2022/03/28 04:54:09;;;;;;;3.53;1.90;;;17.40;52.40;;;;;;5052157;28;20562;-69
2022/03/28 04:56:34;;;;;;;3.92;2.05;;;17.40;52.40;;;;;;5052643;28;20237;-70
2022/03/28 04:59:00;;;;;;;4.15;1.85;;;17.40;52.30;;;;;;5051511;28;20230;-68
2022/03/28 05:01:26;;;;;;;3.53;1.88;;;17.30;52.30;;;;;;5051849;28;20297;-68
2022/03/28 05:03:58;;;;;;;4.20;2.65;;;17.30;52.30;;;;;;5052553;28;20172;-68
2022/03/28 05:06:23;;;;;;;2.50;2.20;;;17.30;52.30;;;;;;5051467;28;20260;-69
2022/03/28 05:08:49;;;;;;;3.30;2.13;;;17.30;52.30;;;;;;5052508;28;20597;-70
2022/03/28 05:11:14;;;;;;;4.03;2.17;;;17.30;52.30;;;;;;5052176;28;20182;-70
2022/03/28 05:13:40;;;;;;;2.58;1.60;;;17.30;52.30;;;;;;5051555;28;20178;-71
2022/03/28 05:16:06;;;;;;;1.95;1.73;;;17.30;52.30;;;;;;5051886;28;20183;-68
2022/03/28 05:18:31;;;;;;;3.38;2.05;;;17.30;52.30;;;;;;5055574;28;20539;-70
2022/03/28 05:20:57;;;;;;;2.63;1.92;;;17.30;52.30;;;;;;5055387;28;20231;-67
2022/03/28 05:23:23;;;;;;;3.50;2.53;;;17.30;52.30;;;;;;5056035;28;20594;-67
2022/03/28 05:25:51;;;;;;;4.70;2.22;;;17.30;52.30;;;;;;5056197;28;20171;-69
2022/03/28 05:28:16;;;;;;;2.55;1.80;;;17.30;52.30;;;;;;5055116;28;20175;-68
2022/03/28 05:30:42;;;;;;;2.00;1.77;;;17.30;52.30;;;;;;5055915;28;20544;-67
2022/03/28 05:33:08;;;;;;;3.15;1.65;;;17.30;52.30;;;;;;5055819;28;20204;-67
2022/03/28 05:35:34;;;;;;;4.18;2.33;;;17.20;52.20;;;;;;5055178;28;20617;-67
2022/03/28 05:38:00;;;;;;;3.30;1.80;;;17.30;52.30;;;;;;5054740;28;20179;-67
2022/03/28 05:40:25;;;;;;;4.28;2.10;;;17.20;52.20;;;;;;5054578;28;20294;-69
2022/03/28 05:42:51;;;;;;;2.63;1.92;;;17.20;52.20;;;;;;5054683;28;20183;-68
2022/03/28 05:45:16;;;;;;;3.60;1.88;;;17.20;52.30;;;;;;5054254;28;20175;-68
2022/03/28 05:47:42;;;;;;;3.00;1.75;;;17.20;52.20;;;;;;5053871;28;20182;-68
2022/03/28 05:50:08;;;;;;;2.45;2.13;;;17.20;52.20;;;;;;5055518;28;20178;-67
2022/03/28 05:52:33;;;;;;;3.35;2.35;;;17.20;52.20;;;;;;5055767;28;20176;-69
2022/03/28 05:54:59;;;;;;;2.45;2.03;;;17.20;52.20;;;;;;5054863;28;20233;-67
2022/03/28 05:57:24;;;;;;;2.28;2.08;;;17.20;52.20;;;;;;5055202;28;20171;-67
2022/03/28 05:59:51;;;;;;;2.30;1.88;;;17.20;52.20;;;;;;5055079;28;20597;-68
2022/03/28 06:02:16;;;;;;;2.00;1.80;;;17.20;52.20;;;;;;5054424;28;20241;-67
2022/03/28 06:04:42;;;;;;;2.83;2.13;;;17.20;52.20;;;;;;5055340;28;20630;-67
2022/03/28 06:07:07;;;;;;;2.40;1.92;;;17.20;52.20;;;;;;5055040;28;20229;-68
2022/03/28 06:09:33;;;;;;;2.53;2.33;;;17.20;52.20;;;;;;5054548;28;20188;-70
2022/03/28 06:11:58;;;;;;;2.03;1.83;;;17.20;52.10;;;;;;5055168;28;20216;-70
2022/03/28 06:14:24;;;;;;;2.33;2.13;;;17.20;52.10;;;;;;5054560;28;20217;-72
2022/03/28 06:16:50;;;;;;;3.53;2.17;;;17.20;52.10;;;;;;5054389;28;20656;-70
2022/03/28 06:19:16;;;;;;;3.35;2.15;;;17.20;52.10;;;;;;5054970;28;20178;-70
2022/03/28 06:21:41;;;;;;;2.75;1.85;;;17.10;52.00;;;;;;5054852;28;20241;-70
2022/03/28 06:24:08;;;;;;;2.28;2.05;;;17.20;52.00;;;;;;5054068;28;20191;-69
2022/03/28 06:26:34;;;;;;;2.30;1.73;;;17.20;52.00;;;;;;5054951;28;20292;-71
2022/03/28 06:29:00;;;;;;;2.35;2.08;;;17.20;52.00;;;;;;5054386;28;20213;-68
2022/03/28 06:31:25;;;;;;;2.60;1.90;;;17.20;52.10;;;;;;5053997;28;20178;-68
2022/03/28 06:33:51;;;;;;;2.60;1.92;;;17.20;52.00;;;;;;5054947;28;20664;-67
2022/03/28 06:36:17;;;;;;;2.78;2.00;;;17.20;51.90;;;;;;5054657;28;20190;-67
2022/03/28 06:38:42;;;;;;;2.53;1.70;;;17.20;51.60;;;;;;5054204;28;20175;-67
2022/03/28 06:41:09;;;;;;;3.10;2.13;;;17.30;51.60;;;;;;5054272;28;20198;-68
2022/03/28 06:43:34;;;;;;;1.70;1.60;;;17.30;51.60;;;;;;5053997;28;20215;-68
2022/03/28 06:46:00;;;;;;;2.53;1.80;;;17.30;51.70;;;;;;5054718;28;20198;-69
2022/03/28 06:48:25;;;;;;;3.38;2.08;;;17.30;51.80;;;;;;5054318;28;20634;-74
2022/03/28 06:50:51;;;;;;;2.17;1.95;;;17.30;51.40;;;;;;5053863;28;20186;-72
2022/03/28 06:53:17;;;;;;;3.05;2.35;;;17.40;51.40;;;;;;5054146;28;20185;-73
2022/03/28 06:55:45;;;;;;;3.35;2.00;;;17.40;51.80;;;;;;5054528;28;20260;-73
2022/03/28 06:58:11;;;;;;;2.80;1.98;;;17.50;51.50;;;;;;5054435;28;20178;-74
2022/03/28 07:00:37;;;;;;;4.25;2.08;;;17.60;51.40;;;;;;5055109;28;20250;-73
2022/03/28 07:03:02;;;;;;;2.42;1.85;;;17.70;51.30;;;;;;5054295;28;20549;-73
2022/03/28 07:05:28;;;;;;;2.40;2.20;;;17.80;51.30;;;;;;5053387;28;20187;-74
2022/03/28 07:07:55;;;;;;;2.80;2.17;;;17.90;51.20;;;;;;5054140;28;20176;-73
2022/03/28 07:10:21;;;;;;;6.25;2.38;;;18.00;51.00;;;;;;5053940;28;20179;-73
2022/03/28 07:12:47;;;;;;;3.55;1.85;;;18.10;50.90;;;;;;5053467;28;20521;-74
2022/03/28 07:15:12;;;;;;;4.15;2.15;;;18.30;51.00;;;;;;5053787;28;20179;-74
2022/03/28 07:17:48;;;;;;;4.88;2.45;;;18.40;50.90;;;;;;5054528;28;20229;-73
2022/03/28 07:20:14;;;;;;;4.25;2.25;;;18.50;50.90;;;;;;5054282;28;20187;-76
2022/03/28 07:22:40;;;;;;;4.82;2.38;;;18.60;50.90;;;;;;5054424;28;20206;-73
2022/03/28 07:25:06;;;;;;;4.28;2.10;;;18.60;50.90;;;;;;5053797;28;20203;-73
2022/03/28 07:27:38;;;;;;;6.07;2.60;;;18.60;51.60;;;;;;5053167;28;20634;-74
2022/03/28 07:30:05;;;;;;;4.40;2.50;;;18.60;51.10;;;;;;5054081;28;20211;-73
2022/03/28 07:32:30;;;;;;;3.47;2.60;;;18.50;51.30;;;;;;5053519;28;20175;-73
2022/03/28 07:34:56;;;;;;;3.60;2.05;;;18.50;51.30;;;;;;5053109;28;20220;-73
2022/03/28 07:37:22;;;;;;;4.05;2.20;;;18.50;51.40;;;;;;5053346;28;20260;-74
2022/03/28 07:39:48;;;;;;;4.05;2.10;;;18.50;51.50;;;;;;5051976;28;20194;-74
2022/03/28 07:42:13;;;;;;;7.25;2.88;;;18.50;51.60;;;;;;5053267;28;20290;-74
2022/03/28 07:44:39;;;;;;;4.88;1.95;;;18.40;51.50;;;;;;5053672;28;20639;-74
2022/03/28 07:47:08;;;;;;;4.45;2.42;;;18.40;52.30;;;;;;5052777;28;20190;-74
2022/03/28 07:49:37;;;;;;;3.55;2.63;;;18.30;51.80;;;;;;5053331;28;20524;-74
2022/03/28 07:52:07;;;;;;;3.88;2.35;;;18.30;52.00;;;;;;5053451;28;20195;-75
2022/03/28 07:54:33;;;;;;;2.63;1.67;;;18.30;52.10;;;;;;5052637;28;20236;-73
2022/03/28 07:56:59;;;;;;;3.80;1.95;;;18.20;52.20;;;;;;5053490;28;20191;-74
2022/03/28 07:59:25;;;;;;;3.00;2.10;;;18.10;52.30;;;;;;5052718;28;20234;-74
2022/03/28 08:01:53;;;;;;;3.40;2.38;;;18.10;52.30;;;;;;5052414;28;20268;-73
2022/03/28 08:04:19;;;;;;;4.00;2.33;;;18.10;52.40;;;;;;5052951;28;20204;-74
2022/03/28 08:06:44;;;;;;;4.65;2.22;;;18.00;52.30;;;;;;5052984;28;20218;-73
2022/03/28 08:09:12;;;;;;;3.92;2.00;;;18.00;52.40;;;;;;5052014;28;20194;-74
2022/03/28 08:11:42;;;;;;;2.28;1.83;;;18.00;52.40;;;;;;5053215;28;20171;-73
2022/03/28 08:14:07;;;;;;;2.85;2.42;;;18.00;52.40;;;;;;5052682;28;20272;-74
2022/03/28 08:16:34;;;;;;;3.47;2.00;;;18.00;52.40;;;;;;5052288;28;20321;-73
2022/03/28 08:18:59;;;;;;;3.13;2.30;;;18.00;52.30;;;;;;5053032;28;20183;-74
2022/03/28 08:21:25;;;;;;;3.40;1.88;;;18.00;52.30;;;;;;5052260;28;20960;-73
2022/03/28 08:23:50;;;;;;;3.88;2.08;;;18.00;52.30;;;;;;5052011;28;20171;-73
2022/03/28 08:26:16;;;;;;;4.00;2.10;;;18.10;52.30;;;;;;5052600;28;20179;-71
2022/03/28 08:28:42;;;;;;;2.65;2.15;;;18.10;52.30;;;;;;5052534;28;20175;-74
2022/03/28 08:31:08;;;;;;;2.33;2.10;;;18.10;52.20;;;;;;5051886;28;20182;-74
2022/03/28 08:33:34;;;;;;;3.35;1.92;;;18.20;52.20;;;;;;5052674;28;20545;-74
2022/03/28 08:35:59;;;;;;;2.45;1.92;;;18.20;52.20;;;;;;5052493;28;20555;-74
2022/03/28 08:38:25;;;;;;;2.28;1.83;;;18.20;52.80;;;;;;5051830;28;20592;-73
2022/03/28 08:40:50;;;;;;;4.38;1.98;;;18.20;52.20;;;;;;5052653;28;20209;-75
2022/03/28 08:43:20;;;;;;;2.55;2.08;;;18.20;52.20;;;;;;5051594;28;20175;-74
2022/03/28 08:45:45;;;;;;;3.33;2.00;;;18.20;52.10;;;;;;5052629;28;20201;-74
2022/03/28 08:48:13;;;;;;;2.22;2.03;;;18.30;52.20;;;;;;5052160;28;20262;-75
2022/03/28 08:50:46;;;;;;;3.20;2.10;;;18.20;52.00;;;;;;5051667;28;20229;-73
2022/03/28 08:53:12;;;;;;;2.30;2.10;;;18.30;52.10;;;;;;5052265;28;20179;-75
2022/03/28 08:55:41;;;;;;;3.63;2.55;;;18.30;52.20;;;;;;5052618;28;20220;-74
2022/03/28 08:58:06;;;;;;;3.13;2.50;;;18.30;52.20;;;;;;5051177;28;20175;-74
2022/03/28 09:00:32;;;;;;;3.70;2.15;;;18.30;52.20;;;;;;5052037;28;20268;-73
2022/03/28 09:02:58;;;;;;;1.92;1.73;;;18.40;52.20;;;;;;5052579;28;20187;-74
2022/03/28 09:05:34;;;;;;;2.35;2.03;;;18.40;52.20;;;;;;5051210;28;20171;-73
2022/03/28 09:08:03;;;;;;;2.30;1.95;;;18.40;52.20;;;;;;5052858;28;20232;-73
2022/03/28 09:10:34;;;;;;;2.88;2.13;;;18.40;52.20;;;;;;5052065;28;20179;-72
2022/03/28 09:13:09;;;;;;;2.42;2.05;;;18.40;52.20;;;;;;5051774;28;20179;-73
2022/03/28 09:15:49;;;;;;;3.25;2.20;;;18.40;52.20;;;;;;5052118;28;20193;-72
2022/03/28 09:18:31;;;;;;;3.00;2.10;;;18.50;52.30;;;;;;5051331;28;20638;-73
2022/03/28 09:21:04;;;;;;;2.10;1.75;;;18.50;52.20;;;;;;5052044;28;20245;-74
2022/03/28 09:23:31;;;;;;;2.75;2.13;;;18.50;52.30;;;;;;5051920;28;20258;-73
2022/03/28 09:25:57;;;;;;;3.47;2.03;;;18.50;52.20;;;;;;5051362;28;20180;-74
2022/03/28 09:28:53;;;;;;;2.50;1.92;;;18.60;52.30;;;;;;5051778;28;20182;-73
2022/03/28 09:31:27;;;;;;;2.55;1.75;;;18.60;52.20;;;;;;5052090;28;20182;-74
2022/03/28 09:33:56;;;;;;;2.42;1.90;;;18.60;52.30;;;;;;5051500;28;20258;-73
2022/03/28 09:36:44;;;;;;;2.00;1.65;;;18.60;52.30;;;;;;5051661;28;20172;-73
2022/03/28 09:39:17;;;;;;;2.17;1.98;;;18.60;52.30;;;;;;5051947;28;20175;-75
2022/03/28 09:41:44;;;;;;;2.22;1.85;;;18.60;52.30;;;;;;5051339;28;20238;-74
2022/03/28 09:44:10;;;;;;;2.58;1.80;;;18.60;52.30;;;;;;5051730;28;20179;-74
2022/03/28 09:46:37;;;;;;;1.73;1.63;;;18.60;52.30;;;;;;5051233;28;20179;-73
2022/03/28 09:49:03;;;;;;;2.28;2.00;;;18.70;52.30;;;;;;5051849;28;20270;-74
2022/03/28 09:51:30;;;;;;;2.28;2.00;;;18.70;52.30;;;;;;5051770;28;20198;-73
2022/03/28 09:53:56;;;;;;;3.75;1.58;;;18.70;52.30;;;;;;5051276;28;20183;-75
2022/03/28 09:56:22;;;;;;;2.72;2.00;;;18.70;52.20;;;;;;5051413;28;20189;-73
2022/03/28 09:59:01;;;;;;;2.90;2.10;;;18.70;52.30;;;;;;5051746;28;20219;-73
2022/03/28 10:01:35;;;;;;;2.45;2.15;;;18.70;52.20;;;;;;5050672;28;20245;-73
2022/03/28 10:04:05;;;;;;;2.30;2.10;;;18.80;52.20;;;;;;5053789;28;20634;-74
2022/03/28 10:06:35;;;;;;;2.55;1.77;;;18.70;52.20;;;;;;5055312;28;20187;-73
2022/03/28 10:09:01;;;;;;;2.25;2.05;;;18.80;52.20;;;;;;5054675;28;20179;-73
2022/03/28 10:11:26;;;;;;;2.13;1.85;;;18.80;52.20;;;;;;5054979;28;20179;-73
2022/03/28 10:13:52;;;;;;;2.35;2.15;;;18.80;52.20;;;;;;5055140;28;20179;-73
2022/03/28 10:16:17;;;;;;;2.83;2.10;;;18.80;52.20;;;;;;5054117;28;20175;-73
2022/03/28 10:18:50;;;;;;;2.65;2.20;;;18.80;52.10;;;;;;5055002;28;20171;-73
2022/03/28 10:21:21;;;;;;;2.30;2.10;;;18.90;52.10;;;;;;5054787;28;20207;-73
2022/03/28 10:24:03;;;;;;;2.47;1.90;;;18.90;52.10;;;;;;5054499;28;20240;-71
2022/03/28 10:26:31;;;;;;;3.30;1.92;;;18.90;52.10;;;;;;5054842;28;20179;-72
2022/03/28 10:29:10;;;;;;;1.95;1.55;;;18.90;52.00;;;;;;5053249;28;20185;-73
2022/03/28 10:31:55;;;;;;;2.40;1.95;;;18.90;52.00;;;;;;5054851;28;20657;-73
2022/03/28 10:34:40;;;;;;;1.92;1.73;;;18.90;52.00;;;;;;5055107;28;20229;-72
2022/03/28 10:37:34;;;;;;;4.55;2.75;;;18.90;52.10;;;;;;5054479;28;20278;-72
2022/03/28 10:40:12;;;;;;;2.08;1.80;;;18.90;52.00;;;;;;5054812;28;20565;-72
2022/03/28 10:42:58;;;;;;;2.90;1.90;;;18.90;52.10;;;;;;5054322;28;20215;-72
2022/03/28 10:45:51;;;;;;;1.98;1.77;;;19.00;52.10;;;;;;5050145;28;20202;-72
2022/03/28 10:48:36;;;;;;;1.65;1.55;;;19.00;52.00;;;;;;5053148;28;20187;-73
2022/03/28 10:51:08;;;;;;;2.53;1.58;;;19.00;52.10;;;;;;5054590;28;20171;-74
2022/03/28 10:53:39;;;;;;;3.88;1.70;;;19.00;52.00;;;;;;5055364;28;20177;-73
2022/03/28 10:56:38;;;;;;;4.32;1.83;;;19.00;52.00;;;;;;5054628;28;20264;-74
2022/03/28 10:59:11;;;;;;;3.08;1.92;;;19.10;52.10;;;;;;5051450;28;20718;-74
2022/03/28 11:01:43;;;;;;;3.08;1.85;;;19.10;52.10;;;;;;5054485;28;20233;-73
2022/03/28 11:04:12;;;;;;;2.35;1.92;;;19.10;52.10;;;;;;5052962;28;20182;-72
2022/03/28 11:06:45;;;;;;;5.15;2.00;;;19.10;52.20;;;;;;5054454;28;20174;-72
2022/03/28 11:09:11;;;;;;;3.00;1.90;;;19.10;52.20;;;;;;5053775;28;20179;-71
2022/03/28 11:11:36;;;;;;;2.70;1.83;;;19.10;52.20;;;;;;5052357;28;20182;-71
2022/03/28 11:14:09;;;;;;;2.53;1.75;;;19.10;52.20;;;;;;5052501;28;20171;-72
2022/03/28 11:16:49;;;;;;;6.55;1.90;;;19.20;52.20;;;;;;5053470;28;20213;-72
2022/03/28 11:19:29;;;;;;;6.60;2.22;;;19.20;52.20;;;;;;5052882;28;20191;-74
2022/03/28 11:22:06;;;;;;;3.33;2.08;;;19.20;52.20;;;;;;5054065;28;20352;-73
2022/03/28 11:24:42;;;;;;;2.78;2.05;;;19.20;52.20;;;;;;5054086;28;20175;-74
2022/03/28 11:27:08;;;;;;;3.30;1.88;;;19.20;52.30;;;;;;5052953;28;20304;-73
2022/03/28 11:29:34;;;;;;;5.53;2.00;;;19.20;52.30;;;;;;5053707;28;20216;-73
2022/03/28 11:32:08;;;;;;;3.00;1.90;;;19.20;52.30;;;;;;5053144;28;20258;-73
2022/03/28 11:34:33;;;;;;;2.80;1.83;;;19.30;52.40;;;;;;5053631;28;20229;-72
2022/03/28 11:36:59;;;;;;;5.03;2.20;;;19.30;52.40;;;;;;5052448;28;20221;-74
2022/03/28 11:39:32;;;;;;;2.70;1.90;;;19.30;52.40;;;;;;5051411;28;20634;-73
2022/03/28 11:41:58;;;;;;;4.63;2.42;;;19.30;52.40;;;;;;5053786;28;20218;-74
2022/03/28 11:44:25;;;;;;;3.17;1.65;;;19.30;52.40;;;;;;5053482;28;20178;-71
2022/03/28 11:46:54;;;;;;;3.85;2.03;;;19.40;53.10;;;;;;5052880;28;20276;-73
2022/03/28 11:49:20;;;;;;;2.60;1.63;;;19.40;52.40;;;;;;5053239;28;20175;-72
2022/03/28 11:51:47;;;;;;;4.35;1.88;;;19.40;52.40;;;;;;5053164;28;20210;-73
2022/03/28 11:54:14;;;;;;;3.47;1.73;;;19.40;52.40;;;;;;5050886;28;20630;-73
2022/03/28 11:59:25;;;;;;;4.72;1.67;;;19.40;52.30;;;;;;5052639;28;20578;-72
2022/03/28 12:02:01;;;;;;;2.17;1.80;;;19.40;52.30;;;;;;5052507;28;20388;-66
2022/03/28 12:04:27;;;;;;;3.05;1.70;;;19.40;52.30;;;;;;5052721;28;20199;-68
2022/03/28 12:06:53;;;;;;;4.05;1.98;;;19.50;52.30;;;;;;5053417;28;20255;-68
2022/03/28 12:09:20;;;;;;;6.55;2.08;;;19.50;52.30;;;;;;5052052;28;20649;-71
2022/03/28 12:11:51;;;;;;;3.53;1.88;;;19.60;52.30;;;;;;5053069;28;20226;-71
2022/03/28 12:14:17;;;;;;;5.43;2.55;;;19.60;52.30;;;;;;5051934;28;20232;-73
2022/03/28 12:16:49;;;;;;;8.25;2.05;;;19.60;52.30;;;;;;5053044;28;20175;-70
2022/03/28 12:19:22;;;;;;;4.20;1.77;;;19.50;52.20;;;;;;5052768;28;20186;-71
2022/03/28 12:21:51;;;;;;;4.70;2.30;;;19.50;52.10;;;;;;5052226;28;20218;-71
2022/03/28 12:24:17;;;;;;;3.40;1.73;;;19.50;52.10;;;;;;5052713;28;20183;-70
2022/03/28 12:26:46;;;;;;;2.67;1.50;;;19.60;52.10;;;;;;5052637;28;20297;-71
2022/03/28 12:29:12;;;;;;;3.83;1.85;;;19.60;52.10;;;;;;5051808;28;20179;-69
2022/03/28 12:31:44;;;;;;;5.43;2.13;;;19.60;52.10;;;;;;5044590;28;20180;-68
2022/03/28 12:34:11;;;;;;;4.15;1.75;;;19.60;52.00;;;;;;5048947;28;20195;-68
2022/03/28 12:36:36;;;;;;;5.95;2.00;;;19.60;52.00;;;;;;5051996;28;20182;-68
2022/03/28 12:39:10;;;;;;;7.78;1.98;;;19.60;52.00;;;;;;5047503;28;20543;-68
2022/03/28 12:41:43;;;;;;;1.77;1.65;;;19.60;52.00;;;;;;5032539;28;20681;-70
2022/03/28 12:44:23;;;;;;;3.38;1.55;;;19.70;52.00;;;;;;5031465;28;20205;-70
2022/03/28 12:46:48;;;;;;;8.65;2.00;;;19.70;52.00;;;;;;5032703;28;20203;-70
2022/03/28 12:49:16;;;;;;;3.50;1.67;;;19.70;51.90;;;;;;5049091;28;20218;-70
2022/03/28 12:51:43;;;;;;;2.10;1.70;;;19.70;51.90;;;;;;5052123;28;20191;-69
2022/03/28 12:54:15;;;;;;;2.67;1.95;;;19.70;51.90;;;;;;5052377;28;20179;-71
2022/03/28 12:56:54;;;;;;;2.50;1.88;;;19.70;51.90;;;;;;5051746;28;20178;-70